sensor_id;sensor_type;location;lat;lon;timestamp;pressure;altitude;pressure_sealevel;temperature;humidity
74372;BME280;62885;51.374;6.170;2024-03-02T00:02:14;63490.31;;;8.87;86.04
74372;BME280;62885;51.374;6.170;2024-03-02T00:04:39;63499.00;;;8.95;85.98
74372;BME280;62885;51.374;6.170;2024-03-02T00:07:06;63516.31;;;9.08;85.32
74372;BME280;62885;51.374;6.170;2024-03-02T00:09:32;63509.41;;;9.07;85.28
74372;BME280;62885;51.374;6.170;2024-03-02T00:11:58;63509.41;;;9.07;85.44
74372;BME280;62885;51.374;6.170;2024-03-02T00:14:24;63513.00;;;9.03;85.21
74372;BME280;62885;51.374;6.170;2024-03-02T00:16:51;63508.78;;;9.04;84.88
74372;BME280;62885;51.374;6.170;2024-03-02T00:19:17;63506.09;;;9.01;85.14
74372;BME280;62885;51.374;6.170;2024-03-02T00:21:42;63506.53;;;8.99;85.40
74372;BME280;62885;51.374;6.170;2024-03-02T00:24:18;63513.00;;;9.03;85.78
74372;BME280;62885;51.374;6.170;2024-03-02T00:26:46;63495.81;;;8.94;85.69
74372;BME280;62885;51.374;6.170;2024-03-02T00:29:15;63504.44;;;9.00;85.82
74372;BME280;62885;51.374;6.170;2024-03-02T00:31:44;63518.50;;;9.11;85.37
74372;BME280;62885;51.374;6.170;2024-03-02T00:34:11;63513.22;;;9.11;85.14
74372;BME280;62885;51.374;6.170;2024-03-02T00:36:37;63513.66;;;9.08;85.36
74372;BME280;62885;51.374;6.170;2024-03-02T00:39:03;63516.88;;;9.09;85.12
74372;BME280;62885;51.374;6.170;2024-03-02T00:41:32;63516.94;;;9.12;85.12
74372;BME280;62885;51.374;6.170;2024-03-02T00:46:23;63520.69;;;9.13;85.43
74372;BME280;62885;51.374;6.170;2024-03-02T00:51:49;63532.69;;;9.26;85.16
74372;BME280;62885;51.374;6.170;2024-03-02T00:54:19;63533.78;;;9.27;84.45
74372;BME280;62885;51.374;6.170;2024-03-02T00:56:45;63538.16;;;9.31;84.56
74372;BME280;62885;51.374;6.170;2024-03-02T00:59:12;63549.00;;;9.41;84.30
74372;BME280;62885;51.374;6.170;2024-03-02T01:01:37;63556.00;;;9.45;83.78
74372;BME280;62885;51.374;6.170;2024-03-02T01:04:03;63553.97;;;9.48;84.53
74372;BME280;62885;51.374;6.170;2024-03-02T01:06:28;63560.88;;;9.50;83.46
74372;BME280;62885;51.374;6.170;2024-03-02T01:08:54;63554.91;;;9.44;83.75
74372;BME280;62885;51.374;6.170;2024-03-02T01:11:20;63559.31;;;9.51;83.72
74372;BME280;62885;51.374;6.170;2024-03-02T01:13:48;63556.06;;;9.48;83.82
74372;BME280;62885;51.374;6.170;2024-03-02T01:16:14;63554.38;;;9.44;84.11
74372;BME280;62885;51.374;6.170;2024-03-02T01:18:40;63552.25;;;9.44;84.02
74372;BME280;62885;51.374;6.170;2024-03-02T01:21:06;63552.34;;;9.47;83.68
74372;BME280;62885;51.374;6.170;2024-03-02T01:23:31;63533.47;;;9.54;83.45
74372;BME280;62885;51.374;6.170;2024-03-02T01:25:56;63570.59;;;9.57;83.38
74372;BME280;62885;51.374;6.170;2024-03-02T01:28:22;63571.84;;;9.63;83.14
74372;BME280;62885;51.374;6.170;2024-03-02T01:30:48;63576.66;;;9.65;82.76
74372;BME280;62885;51.374;6.170;2024-03-02T01:33:13;63584.28;;;9.72;82.92
74372;BME280;62885;51.374;6.170;2024-03-02T01:35:39;63584.34;;;9.74;83.34
74372;BME280;62885;51.374;6.170;2024-03-02T01:38:05;63591.41;;;9.81;82.67
74372;BME280;62885;51.374;6.170;2024-03-02T01:40:37;63594.59;;;9.81;82.25
74372;BME280;62885;51.374;6.170;2024-03-02T01:43:04;63584.34;;;9.74;85.50
74372;BME280;62885;51.374;6.170;2024-03-02T01:45:32;63538.66;;;9.32;93.71
74372;BME280;62885;51.374;6.170;2024-03-02T01:47:57;63516.88;;;9.09;97.52
74372;BME280;62885;51.374;6.170;2024-03-02T01:50:28;63502.28;;;8.98;99.97
74372;BME280;62885;51.374;6.170;2024-03-02T01:52:57;63499.56;;;8.95;100.00
74372;BME280;62885;51.374;6.170;2024-03-02T01:55:23;63486.53;;;8.83;100.00
74372;BME280;62885;51.374;6.170;2024-03-02T01:57:49;63480.94;;;8.73;100.00
74372;BME280;62885;51.374;6.170;2024-03-02T02:00:16;63478.22;;;8.71;100.00
74372;BME280;62885;51.374;6.170;2024-03-02T02:02:41;63483.19;;;8.78;100.00
74372;BME280;62885;51.374;6.170;2024-03-02T02:05:07;63463.19;;;8.61;100.00
74372;BME280;62885;51.374;6.170;2024-03-02T02:07:32;63464.19;;;8.60;100.00
74372;BME280;62885;51.374;6.170;2024-03-02T02:10:00;63463.19;;;8.61;100.00
74372;BME280;62885;51.374;6.170;2024-03-02T02:12:26;63466.97;;;8.65;100.00
74372;BME280;62885;51.374;6.170;2024-03-02T02:14:51;63481.41;;;8.71;100.00
74372;BME280;62885;51.374;6.170;2024-03-02T02:17:17;63469.69;;;8.68;100.00
74372;BME280;62885;51.374;6.170;2024-03-02T02:19:42;63477.75;;;8.73;100.00
74372;BME280;62885;51.374;6.170;2024-03-02T02:22:09;63482.09;;;8.77;100.00
74372;BME280;62885;51.374;6.170;2024-03-02T02:24:35;63484.84;;;8.79;100.00
74372;BME280;62885;51.374;6.170;2024-03-02T02:27:00;63494.59;;;8.88;100.00
74372;BME280;62885;51.374;6.170;2024-03-02T02:29:26;63490.94;;;8.90;100.00
74372;BME280;62885;51.374;6.170;2024-03-02T02:31:51;63489.22;;;8.86;100.00
74372;BME280;62885;51.374;6.170;2024-03-02T02:34:16;63490.25;;;8.84;100.00
74372;BME280;62885;51.374;6.170;2024-03-02T02:36:42;63492.97;;;8.87;100.00
74372;BME280;62885;51.374;6.170;2024-03-02T02:39:11;63499.44;;;8.90;100.00
74372;BME280;62885;51.374;6.170;2024-03-02T02:41:38;63492.34;;;8.84;100.00
74372;BME280;62885;51.374;6.170;2024-03-02T02:44:04;63492.91;;;8.84;100.00
74372;BME280;62885;51.374;6.170;2024-03-02T02:46:29;63491.88;;;8.86;100.00
74372;BME280;62885;51.374;6.170;2024-03-02T02:48:55;63491.88;;;8.86;100.00
74372;BME280;62885;51.374;6.170;2024-03-02T02:51:20;63495.75;;;8.92;99.39
74372;BME280;62885;51.374;6.170;2024-03-02T02:53:45;63499.56;;;8.95;98.37
74372;BME280;62885;51.374;6.170;2024-03-02T02:56:11;63498.53;;;8.97;98.35
74372;BME280;62885;51.374;6.170;2024-03-02T02:58:36;63499.56;;;8.95;97.71
74372;BME280;62885;51.374;6.170;2024-03-02T03:01:02;63504.38;;;8.97;98.29
74372;BME280;62885;51.374;6.170;2024-03-02T03:03:27;63502.75;;;8.96;97.52
74372;BME280;62885;51.374;6.170;2024-03-02T03:05:52;63498.00;;;8.96;96.89
74372;BME280;62885;51.374;6.170;2024-03-02T03:08:18;63507.00;;;8.97;95.38
74372;BME280;62885;51.374;6.170;2024-03-02T03:10:43;63500.09;;;8.96;94.57
74372;BME280;62885;51.374;6.170;2024-03-02T03:13:09;63504.84;;;8.95;94.74
74372;BME280;62885;51.374;6.170;2024-03-02T03:15:35;63508.72;;;9.01;93.92
74372;BME280;62885;51.374;6.170;2024-03-02T03:18:02;63487.53;;;8.82;94.04
74372;BME280;62885;51.374;6.170;2024-03-02T03:20:29;63481.63;;;8.79;93.99
74372;BME280;62885;51.374;6.170;2024-03-02T03:22:54;63482.09;;;8.77;94.41
74372;BME280;62885;51.374;6.170;2024-03-02T03:25:20;63477.75;;;8.73;94.20
74372;BME280;62885;51.374;6.170;2024-03-02T03:27:45;63469.63;;;8.65;94.29
74372;BME280;62885;51.374;6.170;2024-03-02T03:30:11;63465.88;;;8.64;94.36
74372;BME280;62885;51.374;6.170;2024-03-02T03:32:37;63463.63;;;8.59;94.35
74372;BME280;62885;51.374;6.170;2024-03-02T03:35:03;63453.31;;;8.50;95.34
74372;BME280;62885;51.374;6.170;2024-03-02T03:37:29;63452.38;;;8.54;95.71
74372;BME280;62885;51.374;6.170;2024-03-02T03:40:04;63450.59;;;8.47;95.66
74372;BME280;62885;51.374;6.170;2024-03-02T03:42:38;63453.38;;;8.52;95.12
74372;BME280;62885;51.374;6.170;2024-03-02T03:45:04;63450.13;;;8.49;95.05
74372;BME280;62885;51.374;6.170;2024-03-02T03:47:33;63458.28;;;8.57;94.89
74372;BME280;62885;51.374;6.170;2024-03-02T03:49:58;63452.84;;;8.52;95.95
74372;BME280;62885;51.374;6.170;2024-03-02T03:52:24;63451.22;;;8.50;96.21
74372;BME280;62885;51.374;6.170;2024-03-02T03:54:50;63446.31;;;8.46;96.38
74372;BME280;62885;51.374;6.170;2024-03-02T03:57:16;63437.09;;;8.37;97.08
74372;BME280;62885;51.374;6.170;2024-03-02T03:59:41;63458.22;;;8.54;98.06
74372;BME280;62885;51.374;6.170;2024-03-02T04:02:07;63440.28;;;8.38;99.04
74372;BME280;62885;51.374;6.170;2024-03-02T04:04:33;63444.63;;;8.42;99.18
74372;BME280;62885;51.374;6.170;2024-03-02T04:06:58;63443.53;;;8.41;100.00
74372;BME280;62885;51.374;6.170;2024-03-02T04:09:24;63443.47;;;8.38;100.00
74372;BME280;62885;51.374;6.170;2024-03-02T04:11:50;63431.75;;;8.35;100.00
74372;BME280;62885;51.374;6.170;2024-03-02T04:14:16;63442.41;;;8.37;100.00
74372;BME280;62885;51.374;6.170;2024-03-02T04:16:42;63441.44;;;8.41;100.00
74372;BME280;62885;51.374;6.170;2024-03-02T04:19:07;63434.38;;;8.35;100.00
74372;BME280;62885;51.374;6.170;2024-03-02T04:21:32;63429.03;;;8.32;100.00
74372;BME280;62885;51.374;6.170;2024-03-02T04:23:58;63436.41;;;8.32;100.00
74372;BME280;62885;51.374;6.170;2024-03-02T04:26:24;63438.66;;;8.36;100.00
74372;BME280;62885;51.374;6.170;2024-03-02T04:28:51;63435.94;;;8.34;100.00
74372;BME280;62885;51.374;6.170;2024-03-02T04:31:16;63428.25;;;8.24;100.00
74372;BME280;62885;51.374;6.170;2024-03-02T04:33:42;63424.50;;;8.23;100.00
74372;BME280;62885;51.374;6.170;2024-03-02T04:36:07;63434.88;;;8.33;100.00
74372;BME280;62885;51.374;6.170;2024-03-02T04:38:35;63435.38;;;8.33;100.00
74372;BME280;62885;51.374;6.170;2024-03-02T04:41:00;63433.78;;;8.32;100.00
74372;BME280;62885;51.374;6.170;2024-03-02T04:43:25;63436.03;;;8.36;100.00
74372;BME280;62885;51.374;6.170;2024-03-02T04:45:51;63432.75;;;8.33;100.00
74372;BME280;62885;51.374;6.170;2024-03-02T04:48:16;63433.28;;;8.34;100.00
74372;BME280;62885;51.374;6.170;2024-03-02T04:50:42;63432.16;;;8.30;100.00
74372;BME280;62885;51.374;6.170;2024-03-02T04:53:07;63429.50;;;8.30;100.00
74372;BME280;62885;51.374;6.170;2024-03-02T04:55:33;63436.47;;;8.34;100.00
74372;BME280;62885;51.374;6.170;2024-03-02T04:58:00;63424.59;;;8.25;100.00
74372;BME280;62885;51.374;6.170;2024-03-02T05:00:26;63420.78;;;8.22;100.00
74372;BME280;62885;51.374;6.170;2024-03-02T05:02:51;63419.78;;;8.23;100.00
74372;BME280;62885;51.374;6.170;2024-03-02T05:05:16;63423.03;;;8.27;100.00
74372;BME280;62885;51.374;6.170;2024-03-02T05:07:42;63423.56;;;8.27;100.00
74372;BME280;62885;51.374;6.170;2024-03-02T05:10:09;63425.06;;;8.23;100.00
74372;BME280;62885;51.374;6.170;2024-03-02T05:12:34;63428.84;;;8.27;100.00
74372;BME280;62885;51.374;6.170;2024-03-02T05:15:15;63431.56;;;8.30;100.00
74372;BME280;62885;51.374;6.170;2024-03-02T05:17:41;63434.78;;;8.30;100.00
74372;BME280;62885;51.374;6.170;2024-03-02T05:20:10;63423.56;;;8.27;100.00
74372;BME280;62885;51.374;6.170;2024-03-02T05:22:36;63427.78;;;8.26;100.00
74372;BME280;62885;51.374;6.170;2024-03-02T05:25:02;63421.34;;;8.22;100.00
74372;BME280;62885;51.374;6.170;2024-03-02T05:27:28;63430.44;;;8.26;100.00
74372;BME280;62885;51.374;6.170;2024-03-02T05:29:53;63433.28;;;8.34;100.00
74372;BME280;62885;51.374;6.170;2024-03-02T05:32:19;63426.84;;;8.30;100.00
74372;BME280;62885;51.374;6.170;2024-03-02T05:34:44;63426.22;;;8.27;100.00
74372;BME280;62885;51.374;6.170;2024-03-02T05:37:10;63431.56;;;8.30;100.00
74372;BME280;62885;51.374;6.170;2024-03-02T05:39:35;63426.75;;;8.27;100.00
74372;BME280;62885;51.374;6.170;2024-03-02T05:42:00;63423.56;;;8.27;100.00
74372;BME280;62885;51.374;6.170;2024-03-02T05:44:26;63425.06;;;8.23;100.00
74372;BME280;62885;51.374;6.170;2024-03-02T05:46:51;63425.06;;;8.23;100.00
74372;BME280;62885;51.374;6.170;2024-03-02T05:49:16;63425.59;;;8.24;100.00
74372;BME280;62885;51.374;6.170;2024-03-02T05:51:42;63422.97;;;8.24;100.00
74372;BME280;62885;51.374;6.170;2024-03-02T05:54:07;63417.00;;;8.18;100.00
74372;BME280;62885;51.374;6.170;2024-03-02T05:56:32;63418.00;;;8.17;100.00
74372;BME280;62885;51.374;6.170;2024-03-02T05:58:58;63415.34;;;8.17;100.00
74372;BME280;62885;51.374;6.170;2024-03-02T06:01:42;63418.63;;;8.20;100.00
74372;BME280;62885;51.374;6.170;2024-03-02T06:04:08;63415.84;;;8.15;100.00
74372;BME280;62885;51.374;6.170;2024-03-02T06:06:33;63409.94;;;8.12;100.00
74372;BME280;62885;51.374;6.170;2024-03-02T06:09:02;63422.28;;;8.18;100.00
74372;BME280;62885;51.374;6.170;2024-03-02T06:11:38;63414.75;;;8.14;100.00
74372;BME280;62885;51.374;6.170;2024-03-02T06:14:05;63423.44;;;8.22;100.00
74372;BME280;62885;51.374;6.170;2024-03-02T06:16:30;63419.72;;;8.21;99.97
74372;BME280;62885;51.374;6.170;2024-03-02T06:18:57;63413.72;;;8.15;99.46
74372;BME280;62885;51.374;6.170;2024-03-02T06:21:26;63421.34;;;8.22;99.14
74372;BME280;62885;51.374;6.170;2024-03-02T06:23:52;63423.91;;;8.20;98.29
74372;BME280;62885;51.374;6.170;2024-03-02T06:26:17;63418.63;;;8.20;97.04
74372;BME280;62885;51.374;6.170;2024-03-02T06:28:43;63420.78;;;8.22;97.06
74372;BME280;62885;51.374;6.170;2024-03-02T06:31:08;63419.78;;;8.23;96.28
74372;BME280;62885;51.374;6.170;2024-03-02T06:33:34;63427.84;;;8.29;96.64
74372;BME280;62885;51.374;6.170;2024-03-02T06:35:59;63431.56;;;8.30;95.06
74372;BME280;62885;51.374;6.170;2024-03-02T06:38:25;63479.94;;;8.75;92.48
74372;BME280;62885;51.374;6.170;2024-03-02T06:40:51;63465.28;;;8.61;92.50
74372;BME280;62885;51.374;6.170;2024-03-02T06:43:16;63448.50;;;8.48;92.48
74372;BME280;62885;51.374;6.170;2024-03-02T06:45:41;63464.19;;;8.60;91.78
74372;BME280;62885;51.374;6.170;2024-03-02T06:48:07;63444.72;;;8.44;92.95
74372;BME280;62885;51.374;6.170;2024-03-02T06:50:32;63443.53;;;8.41;92.72
74372;BME280;62885;51.374;6.170;2024-03-02T06:52:58;63439.66;;;8.35;92.38
74372;BME280;62885;51.374;6.170;2024-03-02T06:55:23;63424.66;;;8.28;92.82
74372;BME280;62885;51.374;6.170;2024-03-02T06:57:49;63436.47;;;8.34;93.12
74372;BME280;62885;51.374;6.170;2024-03-02T07:00:15;63435.94;;;8.34;93.19
74372;BME280;62885;51.374;6.170;2024-03-02T07:02:43;63439.13;;;8.34;93.41
74372;BME280;62885;51.374;6.170;2024-03-02T07:05:08;63436.03;;;8.36;92.59
74372;BME280;62885;51.374;6.170;2024-03-02T07:07:34;63430.50;;;8.29;92.56
74372;BME280;62885;51.374;6.170;2024-03-02T07:10:00;63429.50;;;8.30;92.61
74372;BME280;62885;51.374;6.170;2024-03-02T07:12:26;63435.88;;;8.31;92.75
74372;BME280;62885;51.374;6.170;2024-03-02T07:14:51;63431.03;;;8.29;92.99
74372;BME280;62885;51.374;6.170;2024-03-02T07:17:29;63438.03;;;8.33;93.85
74372;BME280;62885;51.374;6.170;2024-03-02T07:19:54;63429.94;;;8.28;93.80
74372;BME280;62885;51.374;6.170;2024-03-02T07:22:19;63429.94;;;8.28;94.08
74372;BME280;62885;51.374;6.170;2024-03-02T07:24:45;63428.84;;;8.27;93.88
74372;BME280;62885;51.374;6.170;2024-03-02T07:27:13;63433.22;;;8.31;93.71
74372;BME280;62885;51.374;6.170;2024-03-02T07:29:40;63432.81;;;8.36;94.07
74372;BME280;62885;51.374;6.170;2024-03-02T07:32:08;63439.81;;;8.40;93.96
74372;BME280;62885;51.374;6.170;2024-03-02T07:34:34;63433.22;;;8.31;94.25
74372;BME280;62885;51.374;6.170;2024-03-02T07:36:59;63429.41;;;8.27;94.66
74372;BME280;62885;51.374;6.170;2024-03-02T07:39:25;63431.03;;;8.29;94.67
74372;BME280;62885;51.374;6.170;2024-03-02T07:41:51;63439.75;;;8.37;95.06
74372;BME280;62885;51.374;6.170;2024-03-02T07:44:16;63444.09;;;8.41;94.83
74372;BME280;62885;51.374;6.170;2024-03-02T07:46:46;63445.78;;;8.45;94.08
74372;BME280;62885;51.374;6.170;2024-03-02T07:49:13;63455.50;;;8.52;93.83
74372;BME280;62885;51.374;6.170;2024-03-02T07:51:41;63468.97;;;8.62;93.56
74372;BME280;62885;51.374;6.170;2024-03-02T07:54:07;63471.84;;;8.70;92.99
74372;BME280;62885;51.374;6.170;2024-03-02T07:56:32;63477.34;;;8.77;92.79
74372;BME280;62885;51.374;6.170;2024-03-02T07:58:58;63487.53;;;8.82;91.55
74372;BME280;62885;51.374;6.170;2024-03-02T08:01:29;63500.66;;;8.96;91.59
74372;BME280;62885;51.374;6.170;2024-03-02T08:03:59;63511.56;;;9.09;90.75
74372;BME280;62885;51.374;6.170;2024-03-02T08:06:25;63526.78;;;9.23;89.59
74372;BME280;62885;51.374;6.170;2024-03-02T08:08:53;63534.31;;;9.28;89.09
74372;BME280;62885;51.374;6.170;2024-03-02T08:11:20;63543.03;;;9.36;87.90
74372;BME280;62885;51.374;6.170;2024-03-02T08:13:45;63543.03;;;9.36;86.92
74372;BME280;62885;51.374;6.170;2024-03-02T08:16:10;63561.50;;;9.53;86.20
74372;BME280;62885;51.374;6.170;2024-03-02T08:18:36;63568.56;;;9.60;85.03
74372;BME280;62885;51.374;6.170;2024-03-02T08:21:01;63568.63;;;9.62;84.27
74372;BME280;62885;51.374;6.170;2024-03-02T08:23:27;63578.81;;;9.67;83.64
74372;BME280;62885;51.374;6.170;2024-03-02T08:25:52;63576.66;;;9.65;83.43
74372;BME280;62885;51.374;6.170;2024-03-02T08:28:18;63590.31;;;9.80;83.00
74372;BME280;62885;51.374;6.170;2024-03-02T08:30:45;63591.31;;;9.78;82.69
74372;BME280;62885;51.374;6.170;2024-03-02T08:33:11;63595.06;;;9.79;82.79
74372;BME280;62885;51.374;6.170;2024-03-02T08:35:36;63604.38;;;9.90;81.37
74372;BME280;62885;51.374;6.170;2024-03-02T08:38:03;63601.13;;;9.87;81.51
74372;BME280;62885;51.374;6.170;2024-03-02T08:40:29;63603.31;;;9.89;81.72
74372;BME280;62885;51.374;6.170;2024-03-02T08:42:54;63610.53;;;10.01;82.16
74372;BME280;62885;51.374;6.170;2024-03-02T08:45:24;63616.97;;;10.05;81.69
74372;BME280;62885;51.374;6.170;2024-03-02T08:47:50;63608.81;;;9.97;81.28
74372;BME280;62885;51.374;6.170;2024-03-02T08:50:16;63611.44;;;9.97;80.93
74372;BME280;62885;51.374;6.170;2024-03-02T08:52:41;63611.53;;;10.00;81.26
74372;BME280;62885;51.374;6.170;2024-03-02T08:55:08;63606.09;;;9.95;80.35
74372;BME280;62885;51.374;6.170;2024-03-02T08:57:33;63617.50;;;10.05;80.16
74372;BME280;62885;51.374;6.170;2024-03-02T08:59:59;63626.69;;;10.11;78.84
74372;BME280;62885;51.374;6.170;2024-03-02T09:02:25;63625.13;;;10.12;78.21
74372;BME280;62885;51.374;6.170;2024-03-02T09:04:51;63645.25;;;10.31;77.83
74372;BME280;62885;51.374;6.170;2024-03-02T09:07:16;63650.72;;;10.36;77.48
74372;BME280;62885;51.374;6.170;2024-03-02T09:09:42;63666.97;;;10.49;77.54
74372;BME280;62885;51.374;6.170;2024-03-02T09:12:08;63678.44;;;10.62;77.56
74372;BME280;62885;51.374;6.170;2024-03-02T09:14:34;63678.41;;;10.59;76.35
74372;BME280;62885;51.374;6.170;2024-03-02T09:17:00;63668.13;;;10.52;75.63
74372;BME280;62885;51.374;6.170;2024-03-02T09:19:26;63669.22;;;10.53;74.76
74372;BME280;62885;51.374;6.170;2024-03-02T09:21:51;63673.63;;;10.60;74.98
74372;BME280;62885;51.374;6.170;2024-03-02T09:24:16;63678.44;;;10.62;74.33
74372;BME280;62885;51.374;6.170;2024-03-02T09:26:42;63672.94;;;10.54;74.63
74372;BME280;62885;51.374;6.170;2024-03-02T09:29:07;63648.06;;;10.76;73.99
74372;BME280;62885;51.374;6.170;2024-03-02T09:31:32;63675.38;;;10.86;73.88
74372;BME280;62885;51.374;6.170;2024-03-02T09:33:58;63713.16;;;10.89;73.09
74372;BME280;62885;51.374;6.170;2024-03-02T09:36:23;63708.38;;;10.90;72.95
74372;BME280;62885;51.374;6.170;2024-03-02T09:38:48;63711.66;;;10.93;71.88
74372;BME280;62885;51.374;6.170;2024-03-02T09:41:17;63710.66;;;10.94;72.30
74372;BME280;62885;51.374;6.170;2024-03-02T09:43:43;63725.19;;;11.03;71.53
74372;BME280;62885;51.374;6.170;2024-03-02T09:46:09;63719.84;;;11.00;71.51
74372;BME280;62885;51.374;6.170;2024-03-02T09:48:35;63731.19;;;11.08;70.87
74372;BME280;62885;51.374;6.170;2024-03-02T09:51:02;63731.25;;;11.11;70.96
74372;BME280;62885;51.374;6.170;2024-03-02T09:53:32;63721.94;;;11.00;70.22
74372;BME280;62885;51.374;6.170;2024-03-02T09:56:02;63730.72;;;11.10;69.91
74372;BME280;62885;51.374;6.170;2024-03-02T09:58:28;63729.69;;;11.12;69.74
74372;BME280;62885;51.374;6.170;2024-03-02T10:00:53;63743.84;;;11.25;70.01
74372;BME280;62885;51.374;6.170;2024-03-02T10:03:19;63762.75;;;11.38;69.43
74372;BME280;62885;51.374;6.170;2024-03-02T10:05:47;63772.03;;;11.46;68.72
74372;BME280;62885;51.374;6.170;2024-03-02T10:08:13;63782.91;;;11.57;69.03
74372;BME280;62885;51.374;6.170;2024-03-02T10:10:40;63784.63;;;11.61;68.30
74372;BME280;62885;51.374;6.170;2024-03-02T10:13:07;63784.63;;;11.61;68.55
74372;BME280;62885;51.374;6.170;2024-03-02T10:15:34;63791.16;;;11.67;67.09
74372;BME280;62885;51.374;6.170;2024-03-02T10:17:59;63786.25;;;11.62;66.99
74372;BME280;62885;51.374;6.170;2024-03-02T10:20:26;63780.31;;;11.59;66.97
74372;BME280;62885;51.374;6.170;2024-03-02T10:22:53;63790.69;;;11.69;65.74
74372;BME280;62885;51.374;6.170;2024-03-02T10:25:32;63820.13;;;11.96;65.73
74372;BME280;62885;51.374;6.170;2024-03-02T10:27:58;63816.72;;;11.88;63.60
74372;BME280;62885;51.374;6.170;2024-03-02T10:30:25;63829.25;;;12.00;63.77
74372;BME280;62885;51.374;6.170;2024-03-02T10:32:53;63833.66;;;12.06;63.32
74372;BME280;62885;51.374;6.170;2024-03-02T10:35:19;63842.38;;;12.14;62.72
74372;BME280;62885;51.374;6.170;2024-03-02T10:37:47;63838.09;;;12.13;62.06
74372;BME280;62885;51.374;6.170;2024-03-02T10:40:12;63857.13;;;12.28;61.99
74372;BME280;62885;51.374;6.170;2024-03-02T10:42:38;63863.59;;;12.31;60.49
74372;BME280;62885;51.374;6.170;2024-03-02T10:45:06;63842.56;;;12.42;59.17
74372;BME280;62885;51.374;6.170;2024-03-02T10:47:33;63868.56;;;12.39;58.50
74372;BME280;62885;51.374;6.170;2024-03-02T10:50:00;63871.88;;;12.44;59.03
74372;BME280;62885;51.374;6.170;2024-03-02T10:52:26;63878.31;;;12.45;58.52
74372;BME280;62885;51.374;6.170;2024-03-02T10:54:52;63870.66;;;12.38;58.27
74372;BME280;62885;51.374;6.170;2024-03-02T10:57:21;63841.31;;;12.55;58.21
74372;BME280;62885;51.374;6.170;2024-03-02T11:00:02;63880.00;;;12.49;57.50
74372;BME280;62885;51.374;6.170;2024-03-02T11:02:30;63890.84;;;12.57;58.91
74372;BME280;62885;51.374;6.170;2024-03-02T11:04:56;63890.28;;;12.56;59.73
74372;BME280;62885;51.374;6.170;2024-03-02T11:07:26;63902.34;;;12.70;58.93
74372;BME280;62885;51.374;6.170;2024-03-02T11:10:01;63904.06;;;12.74;58.22
74372;BME280;62885;51.374;6.170;2024-03-02T11:12:44;63882.19;;;12.51;60.27
74372;BME280;62885;51.374;6.170;2024-03-02T11:15:17;63917.03;;;12.81;60.66
74372;BME280;62885;51.374;6.170;2024-03-02T11:17:44;63922.66;;;12.94;60.15
74372;BME280;62885;51.374;6.170;2024-03-02T11:20:10;63935.63;;;13.01;59.55
74372;BME280;62885;51.374;6.170;2024-03-02T11:22:36;63918.78;;;12.88;59.21
74372;BME280;62885;51.374;6.170;2024-03-02T11:25:04;63901.75;;;12.67;59.27
74372;BME280;62885;51.374;6.170;2024-03-02T11:33:08;63917.06;;;12.84;58.84
74372;BME280;62885;51.374;6.170;2024-03-02T11:35:37;63932.41;;;13.00;58.63
74372;BME280;62885;51.374;6.170;2024-03-02T11:38:03;63928.06;;;12.96;59.01
74372;BME280;62885;51.374;6.170;2024-03-02T11:40:29;63937.84;;;13.05;58.25
74372;BME280;62885;51.374;6.170;2024-03-02T11:42:55;63918.28;;;12.90;57.36
74372;BME280;62885;51.374;6.170;2024-03-02T11:45:25;63920.41;;;12.89;56.62
74372;BME280;62885;51.374;6.170;2024-03-02T11:47:53;63923.16;;;12.92;56.51
74372;BME280;62885;51.374;6.170;2024-03-02T11:50:35;63900.88;;;12.96;56.00
74372;BME280;62885;51.374;6.170;2024-03-02T11:53:08;63940.47;;;13.03;55.22
74372;BME280;62885;51.374;6.170;2024-03-02T11:55:35;63946.63;;;13.13;54.71
74372;BME280;62885;51.374;6.170;2024-03-02T11:58:02;63942.16;;;13.07;54.20
74372;BME280;62885;51.374;6.170;2024-03-02T12:00:27;63968.28;;;13.29;54.73
74372;BME280;62885;51.374;6.170;2024-03-02T12:03:04;63967.91;;;13.33;54.09
74372;BME280;62885;51.374;6.170;2024-03-02T12:05:31;63951.53;;;13.18;54.52
74372;BME280;62885;51.374;6.170;2024-03-02T12:07:58;63938.91;;;13.04;54.40
74372;BME280;62885;51.374;6.170;2024-03-02T12:10:24;63932.28;;;12.95;54.24
74372;BME280;62885;51.374;6.170;2024-03-02T12:13:04;63932.28;;;12.95;54.69
74372;BME280;62885;51.374;6.170;2024-03-02T12:15:31;63920.34;;;12.87;54.46
74372;BME280;62885;51.374;6.170;2024-03-02T12:17:57;63927.38;;;12.91;55.18
74372;BME280;62885;51.374;6.170;2024-03-02T12:20:24;63923.06;;;12.89;55.66
74372;BME280;62885;51.374;6.170;2024-03-02T12:22:53;63926.91;;;12.93;55.70
74372;BME280;62885;51.374;6.170;2024-03-02T12:25:20;63933.50;;;13.01;55.73
74372;BME280;62885;51.374;6.170;2024-03-02T12:27:47;63948.19;;;13.12;56.05
74372;BME280;62885;51.374;6.170;2024-03-02T12:30:16;63944.34;;;13.09;55.58
74372;BME280;62885;51.374;6.170;2024-03-02T12:32:41;63942.78;;;13.10;55.27
74372;BME280;62885;51.374;6.170;2024-03-02T12:35:07;63949.34;;;13.16;55.40
74372;BME280;62885;51.374;6.170;2024-03-02T12:37:32;63962.97;;;13.29;54.97
74372;BME280;62885;51.374;6.170;2024-03-02T12:39:58;63975.47;;;13.38;54.73
74372;BME280;62885;51.374;6.170;2024-03-02T12:42:24;63974.44;;;13.39;54.99
74372;BME280;62885;51.374;6.170;2024-03-02T12:44:53;63984.81;;;13.49;54.95
74372;BME280;62885;51.374;6.170;2024-03-02T12:47:21;63997.91;;;13.61;55.05
74372;BME280;62885;51.374;6.170;2024-03-02T12:49:46;63995.66;;;13.56;55.11
74372;BME280;62885;51.374;6.170;2024-03-02T12:52:13;64002.81;;;13.66;55.11
74372;BME280;62885;51.374;6.170;2024-03-02T12:54:38;64012.09;;;13.74;55.16
74372;BME280;62885;51.374;6.170;2024-03-02T12:57:04;64035.44;;;13.91;55.66
74372;BME280;62885;51.374;6.170;2024-03-02T12:59:30;64017.00;;;13.79;54.98
74372;BME280;62885;51.374;6.170;2024-03-02T13:01:56;64010.38;;;13.70;55.23
74372;BME280;62885;51.374;6.170;2024-03-02T13:04:27;64023.47;;;13.82;54.66
74372;BME280;62885;51.374;6.170;2024-03-02T13:06:54;64017.00;;;13.79;54.97
74372;BME280;62885;51.374;6.170;2024-03-02T13:09:21;64032.28;;;13.93;54.83
74372;BME280;62885;51.374;6.170;2024-03-02T13:11:47;64019.78;;;13.84;55.00
74372;BME280;62885;51.374;6.170;2024-03-02T13:14:12;64036.59;;;13.94;54.63